Lauderdale, Minnesota
Current Conditions -  °F | °C
As of 6:53 PM on Monday 24 Nov 2014 (Local Time) from KSTP Reporting Station
Overcast Overcast  
Wind Chill:   Ceiling: 2700
Heat Index: 19°   Visibility: 10mi
Dew Point: 12°   Wind: 18mph
Humidity: 74%   Direction: 310°NW
Pressure: 29.77"   Gusts: NA
Location:  45.0123°N, 93.1559°W
Report Text: KSTP 250053Z 31016KT 10SM OVC027 M07/M11 A2977 RMK AO2 SLP091 T10721111
Loading
Personal Weather Stations






























Interactive Weather Map New forecast layout! Learn more

10-Day Weather Forecast

Advertisements
Track Severe Weather on mobile